Time;durP1;ratioP1;P1;durP2;ratioP2;P2;SDS_P1;SDS_P2;PMS_P1;PMS_P2;Temp;Humidity;BMP_temperature;BMP_pressure;BME280_temperature;BME280_humidity;BME280_pressure;Samples;Min_cycle;Max_cycle;Signal;HPM_P1;HPM_P2
2022/09/05 00:02:03;;;;;;;3.33;1.83;;;;;;;7.73;65.85;100274.94;5030955;28;20136;-57
2022/09/05 00:04:50;;;;;;;4.68;2.00;;;;;;;7.67;66.25;100261.97;5012487;28;20040;-53
2022/09/05 00:07:28;;;;;;;5.32;2.10;;;;;;;7.70;66.26;100264.44;5011671;28;20050;-51
2022/09/05 00:10:35;;;;;;;4.00;2.20;;;;;;;7.68;66.33;100271.66;5012228;28;20104;-56
2022/09/05 00:13:03;;;;;;;7.32;2.40;;;;;;;7.39;66.63;100237.00;5011541;28;20037;-53
2022/09/05 00:15:28;;;;;;;8.82;2.40;;;;;;;7.52;66.88;100267.31;5021044;28;20484;-55
2022/09/05 00:18:15;;;;;;;6.82;2.40;;;;;;;7.59;67.52;100273.97;5030763;28;20080;-53
2022/09/05 00:20:57;;;;;;;6.15;2.58;;;;;;;7.53;67.36;100276.13;5029063;28;20040;-53
2022/09/05 00:23:39;;;;;;;7.68;2.67;;;;;;;7.53;67.62;100265.47;5030706;28;20486;-53
2022/09/05 00:26:49;;;;;;;8.32;3.28;;;;;;;7.44;67.81;100240.25;5031038;28;20022;-51
2022/09/05 00:29:38;;;;;;;8.02;3.50;;;;;;;7.55;67.62;100269.78;5014508;28;20227;-50
2022/09/05 00:32:26;;;;;;;6.68;3.10;;;;;;;7.53;67.69;100265.47;5011285;28;20033;-50
2022/09/05 00:34:59;;;;;;;9.73;3.05;;;;;;;7.48;68.34;100260.44;5019773;28;20087;-53
2022/09/05 00:37:38;;;;;;;7.57;2.88;;;;;;;7.44;68.25;100273.09;5030804;28;20083;-50
2022/09/05 00:40:26;;;;;;;10.80;3.20;;;;;;;7.46;68.35;100265.00;5013334;28;20037;-50
2022/09/05 00:42:56;;;;;;;10.48;3.30;;;;;;;7.33;68.31;100260.41;5030553;28;20482;-56
2022/09/05 00:45:48;;;;;;;5.70;2.83;;;;;;;7.26;68.98;100251.09;5029077;28;20037;-56
2022/09/05 00:48:22;;;;;;;9.73;2.85;;;;;;;7.13;68.90;100231.44;5010765;28;20394;-53
2022/09/05 00:51:13;;;;;;;12.75;3.42;;;;;;;7.33;68.80;100257.75;5011124;28;20095;-54
2022/09/05 00:53:47;;;;;;;6.15;3.10;;;;;;;7.29;69.08;100248.25;5024848;28;20538;-55
2022/09/05 00:56:40;;;;;;;8.90;3.10;;;;;;;7.29;69.23;100258.91;5030511;28;20045;-52
2022/09/05 00:59:33;;;;;;;4.93;2.95;;;;;;;7.30;68.99;100251.75;5022694;28;20486;-56
2022/09/05 01:02:27;;;;;;;8.55;3.03;;;;;;;7.25;68.98;100241.38;5011118;28;20030;-56
2022/09/05 01:05:15;;;;;;;5.13;3.03;;;;;;;7.16;69.03;100242.78;5011567;28;20049;-58
2022/09/05 01:07:49;;;;;;;8.02;2.90;;;;;;;7.15;69.10;100235.75;5010524;28;20049;-50
2022/09/05 01:10:40;;;;;;;5.73;3.17;;;;;;;7.20;69.22;100239.94;5012057;28;20038;-53
2022/09/05 01:13:30;;;;;;;6.03;2.70;;;;;;;7.15;68.97;100241.06;5011601;28;20454;-51
2022/09/05 01:15:58;;;;;;;5.57;2.65;;;;;;;7.04;69.42;100238.19;5015392;28;20041;-52
2022/09/05 01:18:45;;;;;;;6.95;2.85;;;;;;;7.09;69.67;100244.09;5014901;28;20050;-55
2022/09/05 01:21:48;;;;;;;7.35;2.72;;;;;;;7.09;69.64;100230.78;5014973;28;20036;-55
2022/09/05 01:24:32;;;;;;;4.43;2.63;;;;;;;7.08;69.69;100236.19;5014439;28;20033;-53
2022/09/05 01:27:38;;;;;;;4.65;2.67;;;;;;;7.05;69.80;100229.25;5014581;28;20467;-54
2022/09/05 01:30:17;;;;;;;6.47;3.10;;;;;;;6.98;69.98;100227.91;5014896;28;20042;-55
2022/09/05 01:32:57;;;;;;;5.85;2.65;;;;;;;6.98;69.84;100236.72;5014298;28;20465;-56
2022/09/05 01:36:08;;;;;;;3.65;2.67;;;;;;;7.10;69.93;100223.66;5013306;28;20470;-52
2022/09/05 01:38:45;;;;;;;6.00;2.88;;;;;;;7.15;69.80;100227.75;5016315;28;20038;-55
2022/09/05 01:41:41;;;;;;;5.45;2.38;;;;;;;7.34;69.64;100234.63;5030447;28;20037;-54
2022/09/05 01:44:09;;;;;;;11.65;3.08;;;;;;;7.46;69.15;100228.56;5033917;28;20064;-54
2022/09/05 01:47:02;;;;;;;10.10;3.20;;;;;;;7.66;68.89;100225.59;5022209;28;20450;-55
2022/09/05 01:50:03;;;;;;;15.40;2.80;;;;;;;7.85;68.27;100222.69;5014473;28;20344;-54
2022/09/05 01:52:47;;;;;;;11.40;2.97;;;;;;;7.94;67.77;100221.22;5019865;28;20405;-56
2022/09/05 01:55:35;;;;;;;8.57;2.70;;;;;;;7.99;67.46;100224.47;5013530;28;20030;-52
2022/09/05 01:58:43;;;;;;;10.85;2.83;;;;;;;8.10;67.19;100235.28;5020901;28;20034;-56
2022/09/05 02:01:11;;;;;;;5.28;2.78;;;;;;;8.11;66.70;100228.16;5034132;28;20049;-56
2022/09/05 02:04:29;;;;;;;8.43;2.95;;;;;;;8.19;66.84;100229.34;5031160;28;20441;-56
2022/09/05 02:07:06;;;;;;;5.93;2.95;;;;;;;8.14;66.82;100222.63;5017278;28;20119;-53
2022/09/05 02:10:11;;;;;;;8.77;3.13;;;;;;;7.98;66.88;100196.09;5031778;28;20044;-52
2022/09/05 02:12:46;;;;;;;5.75;2.97;;;;;;;8.21;66.94;100229.28;5031115;28;20319;-54
2022/09/05 02:15:17;;;;;;;9.63;3.10;;;;;;;8.29;66.96;100228.78;5029846;28;20049;-55
2022/09/05 02:17:42;;;;;;;5.75;3.10;;;;;;;8.30;66.67;100234.00;5013422;28;20038;-55
2022/09/05 02:20:32;;;;;;;8.40;2.78;;;;;;;8.45;66.38;100234.84;5013411;28;20116;-52
2022/09/05 02:23:16;;;;;;;7.10;2.67;;;;;;;8.56;66.15;100238.63;5018827;28;20037;-53
2022/09/05 02:25:55;;;;;;;6.57;2.95;;;;;;;8.57;65.90;100227.00;5032481;28;20041;-52
2022/09/05 02:28:32;;;;;;;4.82;2.83;;;;;;;8.65;65.88;100231.84;5031795;28;20029;-54
2022/09/05 02:31:08;;;;;;;6.38;2.80;;;;;;;8.70;65.65;100238.59;5013252;28;20041;-56
2022/09/05 02:33:51;;;;;;;10.38;3.10;;;;;;;8.80;65.33;100238.84;5013237;28;20096;-55
2022/09/05 02:36:36;;;;;;;6.93;2.67;;;;;;;8.79;65.44;100237.09;5029519;28;20103;-55
2022/09/05 02:39:25;;;;;;;5.77;3.03;;;;;;;8.79;64.97;100234.44;5032952;28;20088;-52
2022/09/05 02:41:59;;;;;;;8.57;3.03;;;;;;;8.88;65.02;100232.97;5020525;28;20473;-52
2022/09/05 02:44:31;;;;;;;8.30;2.63;;;;;;;8.91;64.71;100230.09;5014846;28;20030;-55
2022/09/05 02:47:06;;;;;;;10.13;3.20;;;;;;;8.93;65.03;100238.88;5019709;28;20482;-53
2022/09/05 02:49:59;;;;;;;10.15;3.47;;;;;;;8.97;64.80;100234.16;5032982;28;20041;-54
2022/09/05 02:52:29;;;;;;;10.20;3.22;;;;;;;8.89;64.53;100232.88;5031047;28;20033;-52
2022/09/05 02:54:57;;;;;;;8.07;3.20;;;;;;;8.93;64.66;100233.53;5012705;28;20081;-55
2022/09/05 02:58:00;;;;;;;11.43;3.20;;;;;;;9.05;64.46;100231.84;5013166;28;20510;-57
2022/09/05 03:00:37;;;;;;;10.82;3.13;;;;;;;9.02;64.42;100229.38;5021209;28;20440;-54
2022/09/05 03:03:26;;;;;;;6.25;3.10;;;;;;;9.14;64.29;100244.56;5030445;28;20029;-56
2022/09/05 03:05:59;;;;;;;6.78;2.95;;;;;;;9.08;64.00;100231.63;5030425;28;20053;-52
2022/09/05 03:09:12;;;;;;;5.70;2.90;;;;;;;9.26;63.81;100237.53;5015703;28;20065;-51
2022/09/05 03:11:49;;;;;;;9.68;3.28;;;;;;;9.20;63.28;100232.63;5022996;28;20108;-55
2022/09/05 03:14:53;;;;;;;7.90;3.30;;;;;;;9.31;63.31;100235.41;5032328;28;20033;-54
2022/09/05 03:17:34;;;;;;;11.80;3.33;;;;;;;9.30;63.09;100240.84;5031021;28;20951;-54
2022/09/05 03:20:52;;;;;;;9.50;3.47;;;;;;;9.37;63.08;100238.59;5012461;28;20038;-57
2022/09/05 03:23:47;;;;;;;3.65;2.70;;;;;;;9.42;63.27;100242.66;5018974;28;20101;-56
2022/09/05 03:26:30;;;;;;;5.90;2.83;;;;;;;9.31;63.00;100218.53;5028254;28;20037;-55
2022/09/05 03:29:24;;;;;;;5.32;2.83;;;;;;;9.45;62.94;100238.94;5010969;28;20387;-53
2022/09/05 03:32:08;;;;;;;3.75;2.72;;;;;;;9.41;62.81;100240.97;5013196;28;20098;-53
2022/09/05 03:35:06;;;;;;;5.57;2.40;;;;;;;9.44;62.50;100245.25;5012545;28;20124;-54
2022/09/05 03:37:53;;;;;;;6.60;2.63;;;;;;;9.47;62.52;100239.69;5011741;28;20044;-57
2022/09/05 03:40:42;;;;;;;5.72;3.00;;;;;;;9.48;62.49;100244.91;5030870;28;20039;-54
2022/09/05 03:43:10;;;;;;;8.32;3.00;;;;;;;9.46;62.11;100232.63;5031225;28;20481;-55
2022/09/05 03:46:11;;;;;;;5.57;2.90;;;;;;;9.58;62.20;100230.91;5012548;28;20030;-57
2022/09/05 03:49:08;;;;;;;6.05;3.15;;;;;;;9.59;61.99;100229.97;5011871;28;20037;-55
2022/09/05 03:51:40;;;;;;;6.43;2.75;;;;;;;9.56;62.41;100236.38;5029890;28;20041;-55
2022/09/05 03:54:19;;;;;;;8.68;2.97;;;;;;;9.58;62.26;100231.75;5016558;28;20116;-55
2022/09/05 03:56:51;;;;;;;7.20;2.72;;;;;;;9.48;62.14;100230.72;5025531;28;20433;-52
2022/09/05 03:59:54;;;;;;;10.50;2.80;;;;;;;9.58;62.29;100242.47;5011385;28;20038;-51
2022/09/05 04:02:30;;;;;;;7.25;2.97;;;;;;;9.62;62.10;100233.25;5018087;28;20037;-52
2022/09/05 04:05:23;;;;;;;8.93;3.00;;;;;;;9.73;61.79;100235.16;5028040;28;20053;-55
2022/09/05 04:08:07;;;;;;;5.07;2.83;;;;;;;9.81;61.64;100241.81;5031128;28;20468;-54
2022/09/05 04:10:52;;;;;;;6.43;2.72;;;;;;;9.83;61.56;100240.72;5029200;28;20045;-58
2022/09/05 04:13:34;;;;;;;5.00;2.90;;;;;;;9.93;61.47;100245.44;5030690;28;20108;-57
2022/09/05 04:16:09;;;;;;;6.85;3.20;;;;;;;10.01;61.01;100245.72;5026320;28;20112;-55
2022/09/05 04:18:44;;;;;;;5.28;2.83;;;;;;;10.15;60.21;100240.25;5029778;28;20049;-54
2022/09/05 04:21:32;;;;;;;4.57;3.00;;;;;;;10.25;60.19;100236.91;5031055;28;20528;-56
2022/09/05 04:24:04;;;;;;;6.70;2.88;;;;;;;10.35;59.81;100248.63;5011124;28;20398;-58
2022/09/05 04:26:49;;;;;;;5.10;3.10;;;;;;;10.42;59.34;100239.25;5020104;28;20033;-56
2022/09/05 04:29:39;;;;;;;8.25;2.85;;;;;;;10.58;59.19;100236.28;5019857;28;20069;-55
2022/09/05 04:32:14;;;;;;;3.75;2.70;;;;;;;10.67;59.18;100229.38;5018731;28;20084;-54
2022/09/05 04:35:06;;;;;;;5.28;2.70;;;;;;;10.77;58.80;100233.06;5014080;28;20045;-54
2022/09/05 04:37:34;;;;;;;4.50;2.90;;;;;;;10.73;58.49;100226.25;5010988;28;20030;-52
2022/09/05 04:40:37;;;;;;;3.88;2.42;;;;;;;10.91;58.56;100225.84;5014209;28;20038;-54
2022/09/05 04:43:32;;;;;;;7.00;2.75;;;;;;;11.15;57.64;100227.63;5027362;28;20065;-54
2022/09/05 04:46:07;;;;;;;5.18;2.58;;;;;;;11.29;57.26;100230.06;5017455;28;20037;-56
2022/09/05 04:49:09;;;;;;;4.97;2.70;;;;;;;11.56;56.88;100226.22;5018372;28;20025;-56
2022/09/05 04:52:12;;;;;;;6.57;2.63;;;;;;;11.91;55.67;100219.88;5017570;28;20072;-57
2022/09/05 04:54:52;;;;;;;6.97;3.30;;;;;;;12.25;54.50;100231.59;5020211;28;20029;-54
2022/09/05 04:57:29;;;;;;;5.40;3.42;;;;;;;12.59;53.37;100229.66;5019338;28;20029;-54
2022/09/05 05:00:42;;;;;;;6.78;3.72;;;;;;;13.03;52.73;100226.94;5020292;28;20141;-55
2022/09/05 05:03:34;;;;;;;15.13;3.70;;;;;;;13.25;51.95;100225.09;5021263;28;20050;-54
2022/09/05 05:06:06;;;;;;;6.78;3.05;;;;;;;13.18;51.18;100229.28;5015658;28;20045;-56
2022/09/05 05:08:53;;;;;;;8.20;3.35;;;;;;;13.41;51.44;100226.47;5016328;28;20049;-56
2022/09/05 05:11:43;;;;;;;6.68;3.58;;;;;;;13.60;51.03;100226.63;5018060;28;20037;-54
2022/09/05 05:14:34;;;;;;;5.28;3.13;;;;;;;13.83;50.40;100226.44;5018279;28;20073;-55
2022/09/05 05:17:12;;;;;;;5.25;3.05;;;;;;;14.19;49.39;100229.53;5016041;28;20038;-53
2022/09/05 05:19:49;;;;;;;8.30;3.05;;;;;;;14.67;48.19;100228.91;5017909;28;20077;-54
2022/09/05 05:22:17;;;;;;;7.40;3.30;;;;;;;15.75;45.43;100224.22;5001554;28;20034;-55
2022/09/05 05:24:47;;;;;;;5.15;3.38;;;;;;;17.11;41.87;100200.19;5016261;28;20044;-56
2022/09/05 05:27:21;;;;;;;3.60;2.85;;;;;;;17.63;40.66;100221.88;5017178;28;20045;-59
2022/09/05 05:29:58;;;;;;;6.13;3.20;;;;;;;17.56;41.37;100214.56;5007152;28;20052;-57
2022/09/05 05:32:39;;;;;;;4.28;3.28;;;;;;;17.22;41.14;100219.72;5017978;28;20156;-53
2022/09/05 05:35:18;;;;;;;4.57;3.00;;;;;;;16.99;42.18;100226.66;5016921;28;20160;-56
2022/09/05 05:37:49;;;;;;;7.03;3.60;;;;;;;16.62;42.49;100217.66;5016928;28;20048;-51
2022/09/05 05:40:15;;;;;;;5.20;3.28;;;;;;;16.23;42.97;100218.78;5019107;28;20132;-57
2022/09/05 05:42:42;;;;;;;7.40;3.40;;;;;;;16.15;43.25;100224.91;5018284;28;20207;-55
2022/09/05 05:45:37;;;;;;;9.23;3.53;;;;;;;16.32;43.97;100220.59;5017413;28;20052;-52
2022/09/05 05:48:08;;;;;;;13.30;3.50;;;;;;;16.24;43.57;100227.75;5016637;28;20136;-55
2022/09/05 05:50:51;;;;;;;8.75;3.65;;;;;;;16.67;42.84;100230.72;5020275;28;20030;-61
2022/09/05 05:53:35;;;;;;;7.15;3.75;;;;;;;17.85;40.58;100225.03;5018569;28;20059;-50
2022/09/05 05:56:29;;;;;;;6.60;3.72;;;;;;;19.00;38.52;100207.41;5017990;28;20058;-53
2022/09/05 05:59:27;;;;;;;9.52;3.60;;;;;;;19.17;36.92;100221.84;5016494;28;20037;-56
2022/09/05 06:02:07;;;;;;;6.68;3.45;;;;;;;18.91;38.29;100227.38;5030715;28;20465;-49
2022/09/05 06:04:54;;;;;;;6.95;3.55;;;;;;;18.44;38.39;100235.13;5032985;28;20029;-56
2022/09/05 06:07:31;;;;;;;7.72;3.40;;;;;;;18.29;39.60;100236.75;5012362;28;20565;-52
2022/09/05 06:10:18;;;;;;;6.38;3.20;;;;;;;18.00;39.31;100232.53;5010828;28;20053;-51
2022/09/05 06:13:18;;;;;;;4.97;2.65;;;;;;;17.94;39.39;100242.16;5016029;28;20046;-53
2022/09/05 06:15:45;;;;;;;5.95;3.35;;;;;;;18.15;38.82;100225.53;5015083;28;20038;-56
2022/09/05 06:18:41;;;;;;;7.50;2.72;;;;;;;18.72;38.67;100220.44;5023115;28;20398;-54
2022/09/05 06:21:09;;;;;;;;;;;;;;;19.86;37.84;100227.78;5022481;28;20030;-53
2022/09/05 06:23:56;;;;;;;4.82;3.00;;;;;;;21.22;33.85;100233.81;5016703;28;19925;-50
2022/09/05 06:26:48;;;;;;;7.28;3.00;;;;;;;22.17;32.79;100235.22;5013017;28;20033;-53
2022/09/05 06:29:32;;;;;;;6.60;2.33;;;;;;;21.90;31.19;100223.97;5012363;28;20455;-50
2022/09/05 06:32:12;;;;;;;8.32;3.50;;;;;;;21.94;31.05;100230.75;5026118;28;20048;-53
2022/09/05 06:34:53;;;;;;;6.82;2.75;;;;;;;22.40;32.00;100237.81;5026762;28;20068;-48
2022/09/05 06:37:24;;;;;;;4.68;2.97;;;;;;;22.37;30.46;100230.00;5032561;28;20038;-53
2022/09/05 06:40:01;;;;;;;8.65;2.70;;;;;;;22.53;30.20;100239.88;5019830;28;20034;-50
2022/09/05 06:42:37;;;;;;;3.78;2.90;;;;;;;22.44;30.38;100236.41;5017169;28;20029;-55
2022/09/05 06:45:12;;;;;;;4.88;2.60;;;;;;;22.33;30.94;100232.28;5024997;28;20106;-58
2022/09/05 06:47:43;;;;;;;3.80;2.78;;;;;;;21.84;30.61;100230.19;5019671;28;20041;-53
2022/09/05 06:50:30;;;;;;;3.97;2.60;;;;;;;21.31;32.02;100239.19;5031754;28;20037;-56
2022/09/05 06:53:28;;;;;;;4.22;3.00;;;;;;;20.54;33.05;100233.63;5026713;28;20036;-55
2022/09/05 06:56:16;;;;;;;5.18;2.20;;;;;;;20.57;32.68;100235.97;5012731;28;20463;-56
2022/09/05 06:58:41;;;;;;;5.78;2.58;;;;;;;21.22;31.78;100230.28;5022875;28;20025;-56
2022/09/05 07:01:09;;;;;;;4.07;2.83;;;;;;;24.78;26.81;100224.59;5019840;28;20039;-56
2022/09/05 07:03:58;;;;;;;3.45;2.50;;;;;;;28.65;22.62;100230.09;5031755;28;20037;-56
2022/09/05 07:06:42;;;;;;;4.47;2.78;;;;;;;30.94;19.62;100227.75;5019666;28;20061;-54
2022/09/05 07:09:26;;;;;;;5.28;2.72;;;;;;;30.82;20.87;100229.72;5024840;28;20129;-56
2022/09/05 07:12:16;;;;;;;3.00;2.70;;;;;;;30.28;20.75;100228.13;5010808;28;20525;-52
2022/09/05 07:15:10;;;;;;;4.60;2.80;;;;;;;29.68;21.11;100227.41;5012856;28;20391;-55
2022/09/05 07:18:00;;;;;;;4.60;2.38;;;;;;;29.73;21.27;100224.75;5016713;28;20037;-56
2022/09/05 07:20:33;;;;;;;3.05;2.65;;;;;;;27.48;22.18;100232.69;5030667;28;20059;-59
2022/09/05 07:23:18;;;;;;;2.97;2.38;;;;;;;25.16;25.25;100230.53;5031008;28;20033;-56
2022/09/05 07:25:46;;;;;;;;;;;;;;;24.40;26.94;100227.84;5031419;28;20515;-54
2022/09/05 07:28:14;;;;;;;6.50;2.83;;;;;;;20.98;30.54;100202.25;5023817;28;19917;-56
2022/09/05 07:30:46;;;;;;;4.85;2.90;;;;;;;19.49;33.63;100232.81;5030838;28;20065;-56
2022/09/05 07:33:21;;;;;;;4.68;2.88;;;;;;;18.30;35.91;100239.31;5027551;28;20033;-58
2022/09/05 07:35:49;;;;;;;4.70;2.70;;;;;;;17.48;37.72;100234.31;5013701;28;20061;-54
2022/09/05 07:38:27;;;;;;;7.07;2.90;;;;;;;17.05;38.66;100240.41;5018076;28;20033;-53
2022/09/05 07:41:19;;;;;;;5.20;3.05;;;;;;;16.44;39.95;100237.44;5016097;28;20022;-54
2022/09/05 07:43:48;;;;;;;6.88;3.03;;;;;;;16.05;40.48;100237.63;5021265;28;20189;-56
2022/09/05 07:46:19;;;;;;;4.50;2.40;;;;;;;15.88;40.45;100242.81;5020269;28;20040;-57
2022/09/05 07:49:07;;;;;;;4.68;2.50;;;;;;;15.83;40.46;100236.16;5031478;28;20038;-55
2022/09/05 07:51:36;;;;;;;4.97;2.10;;;;;;;15.70;40.90;100237.31;5028601;28;20029;-55
2022/09/05 07:54:10;;;;;;;3.75;2.60;;;;;;;15.71;40.71;100235.47;5010323;28;20042;-56
2022/09/05 07:56:51;;;;;;;5.97;2.25;;;;;;;16.43;38.52;100199.75;5011916;28;20034;-56
2022/09/05 07:59:18;;;;;;;5.90;2.30;;;;;;;20.13;31.84;100225.66;5025637;28;20385;-49
2022/09/05 08:01:49;;;;;;;3.67;2.15;;;;;;;22.36;28.63;100228.31;5030924;28;20358;-50
2022/09/05 08:04:28;;;;;;;5.63;2.70;;;;;;;22.58;28.26;100217.47;5019360;28;20048;-52
2022/09/05 08:07:00;;;;;;;3.08;2.35;;;;;;;21.98;29.03;100214.84;5015951;28;20064;-49
2022/09/05 08:09:40;;;;;;;3.58;2.13;;;;;;;21.06;30.25;100223.06;5018831;28;20041;-48
2022/09/05 08:12:53;;;;;;;5.05;2.40;;;;;;;20.00;31.43;100199.06;5014758;28;20398;-47
2022/09/05 08:15:22;;;;;;;6.47;1.90;;;;;;;18.90;33.04;100220.28;5030019;28;20053;-54
2022/09/05 08:18:06;;;;;;;6.35;2.00;;;;;;;18.07;34.57;100225.50;5016653;28;20038;-54
2022/09/05 08:20:44;;;;;;;3.30;1.88;;;;;;;17.61;35.36;100221.19;5015086;28;20036;-54
2022/09/05 08:23:34;;;;;;;3.75;1.70;;;;;;;17.25;35.92;100218.56;5025027;28;20040;-54
2022/09/05 08:26:24;;;;;;;2.35;1.50;;;;;;;16.95;36.48;100209.88;5030781;28;20029;-52
2022/09/05 08:29:16;;;;;;;2.22;1.90;;;;;;;16.92;36.84;100212.88;5026672;28;20065;-54
2022/09/05 08:31:51;;;;;;;2.90;1.75;;;;;;;16.65;37.48;100214.69;5010702;28;20053;-55
2022/09/05 08:34:48;;;;;;;4.35;2.00;;;;;;;16.97;36.97;100215.09;5018338;28;20025;-53
2022/09/05 08:37:20;;;;;;;4.50;1.80;;;;;;;16.96;36.79;100205.28;5011245;28;20077;-54
2022/09/05 08:39:49;;;;;;;3.75;1.90;;;;;;;16.91;36.79;100209.31;5029556;28;20104;-52
2022/09/05 08:42:35;;;;;;;3.67;1.58;;;;;;;16.86;36.87;100202.66;5018677;28;20406;-53
2022/09/05 08:45:16;;;;;;;2.20;1.75;;;;;;;16.78;37.40;100206.19;5023657;28;20033;-54
2022/09/05 08:48:33;;;;;;;2.85;1.60;;;;;;;16.56;37.44;100207.47;5029388;28;20033;-52
2022/09/05 08:51:32;;;;;;;4.20;1.63;;;;;;;16.23;38.24;100204.44;5021098;28;20169;-52
2022/09/05 08:54:02;;;;;;;2.70;1.38;;;;;;;15.85;38.12;100204.47;5028431;28;20029;-57
2022/09/05 08:56:43;;;;;;;2.35;1.38;;;;;;;15.67;38.52;100204.38;5008860;28;20040;-58
2022/09/05 08:59:28;;;;;;;6.97;1.60;;;;;;;15.65;38.65;100199.97;5016283;28;20108;-54
2022/09/05 09:01:53;;;;;;;4.33;1.23;;;;;;;15.64;38.00;100198.25;5013077;28;20034;-52
2022/09/05 09:04:35;;;;;;;5.15;1.70;;;;;;;15.74;38.06;100198.22;5030168;28;20048;-52
2022/09/05 09:07:12;;;;;;;3.90;1.30;;;;;;;15.77;38.08;100194.41;5013197;28;20054;-53
2022/09/05 09:09:59;;;;;;;2.90;1.30;;;;;;;15.97;37.63;100205.97;5010907;28;20184;-55
2022/09/05 09:12:52;;;;;;;6.82;1.45;;;;;;;16.09;37.83;100197.69;5019970;28;20033;-50
2022/09/05 09:15:37;;;;;;;3.60;1.40;;;;;;;16.19;37.39;100198.47;5016814;28;20045;-53
2022/09/05 09:18:39;;;;;;;3.60;1.10;;;;;;;16.68;36.79;100195.44;5021837;28;20132;-56
2022/09/05 09:21:34;;;;;;;2.08;1.10;;;;;;;17.06;36.20;100193.41;5010270;28;20046;-53
2022/09/05 09:24:36;;;;;;;2.10;1.17;;;;;;;17.32;35.63;100189.88;5021189;28;20041;-53
2022/09/05 09:27:14;;;;;;;2.08;1.00;;;;;;;17.48;35.32;100191.84;5010711;28;20045;-55
2022/09/05 09:29:41;;;;;;;3.95;1.10;;;;;;;17.36;35.43;100191.28;5017548;28;20030;-55
2022/09/05 09:32:13;;;;;;;2.30;1.13;;;;;;;17.10;36.31;100180.44;5020104;28;20040;-52
2022/09/05 09:35:16;;;;;;;2.75;1.00;;;;;;;16.86;36.64;100186.44;5021758;28;20052;-58
2022/09/05 09:37:57;;;;;;;8.02;1.25;;;;;;;16.58;37.25;100179.28;5014577;28;20041;-60
2022/09/05 09:40:50;;;;;;;3.60;1.33;;;;;;;16.61;37.53;100184.38;5014383;28;20084;-53
2022/09/05 09:43:22;;;;;;;2.63;1.00;;;;;;;16.64;37.52;100175.13;5014438;28;20041;-54
2022/09/05 09:46:18;;;;;;;7.13;1.20;;;;;;;16.96;37.32;100181.81;5028918;28;20064;-53
2022/09/05 09:48:52;;;;;;;3.15;1.27;;;;;;;17.00;37.09;100175.09;5030657;28;20033;-55
2022/09/05 09:51:25;;;;;;;3.55;1.30;;;;;;;16.84;37.64;100178.50;5033627;28;20033;-55
2022/09/05 09:54:05;;;;;;;2.72;1.50;;;;;;;16.58;38.18;100173.03;5027971;28;20052;-57
2022/09/05 09:57:04;;;;;;;2.10;1.40;;;;;;;16.40;38.57;100183.84;5012554;28;20056;-56
2022/09/05 10:00:08;;;;;;;5.07;1.42;;;;;;;16.15;39.19;100181.69;5027422;28;20057;-54
2022/09/05 10:02:53;;;;;;;1.60;1.00;;;;;;;15.97;39.39;100186.25;5012104;28;20044;-55
2022/09/05 10:05:30;;;;;;;6.07;2.30;;;;;;;15.75;39.93;100177.50;5012521;28;20542;-57
2022/09/05 10:08:08;;;;;;;3.65;1.27;;;;;;;15.54;40.32;100154.28;5013516;28;20038;-55
2022/09/05 10:11:02;;;;;;;3.20;1.20;;;;;;;15.82;40.14;100175.88;5013253;28;20128;-55
2022/09/05 10:14:03;;;;;;;1.83;1.30;;;;;;;15.90;40.30;100176.00;5013301;28;20084;-56
2022/09/05 10:17:06;;;;;;;2.47;1.10;;;;;;;15.84;40.42;100175.75;5013007;28;20058;-56
2022/09/05 10:19:56;;;;;;;2.55;1.10;;;;;;;15.74;40.67;100167.69;5013178;28;20042;-54
2022/09/05 10:23:03;;;;;;;2.05;1.20;;;;;;;15.78;40.77;100166.41;5013629;28;20038;-53
2022/09/05 10:25:47;;;;;;;5.68;1.58;;;;;;;15.54;41.63;100170.47;5011945;28;20091;-55
2022/09/05 10:28:28;;;;;;;3.00;1.17;;;;;;;15.45;42.14;100172.22;5012943;28;20121;-54
2022/09/05 10:31:15;;;;;;;2.92;1.30;;;;;;;15.56;42.09;100173.88;5025249;28;20091;-59
2022/09/05 10:33:50;;;;;;;2.83;1.27;;;;;;;15.52;42.33;100167.06;5033230;28;20045;-57
2022/09/05 10:36:23;;;;;;;1.10;1.00;;;;;;;15.52;42.34;100164.38;5033033;28;20040;-54
2022/09/05 10:39:16;;;;;;;2.15;1.05;;;;;;;15.75;42.02;100164.00;5030360;28;20088;-57
2022/09/05 10:41:56;;;;;;;2.38;0.98;;;;;;;15.82;41.59;100165.09;5030340;28;20025;-55
2022/09/05 10:44:33;;;;;;;2.00;1.05;;;;;;;15.83;41.84;100164.09;5030394;28;20033;-56
2022/09/05 10:47:30;;;;;;;2.85;1.10;;;;;;;15.98;41.71;100155.53;5012812;28;20029;-53
2022/09/05 10:50:10;;;;;;;2.90;1.00;;;;;;;16.10;41.65;100153.47;5013162;28;20034;-54
2022/09/05 10:52:56;;;;;;;2.50;1.10;;;;;;;16.26;42.08;100159.03;5012673;28;20026;-55
2022/09/05 10:55:54;;;;;;;2.33;1.02;;;;;;;16.15;43.34;100167.38;5012672;28;20497;-53
2022/09/05 10:58:31;;;;;;;2.13;1.13;;;;;;;15.83;47.21;100164.09;5024493;28;20041;-51
2022/09/05 11:01:10;;;;;;;2.90;1.20;;;;;;;15.80;46.74;100167.09;5031692;28;20048;-53
2022/09/05 11:03:50;;;;;;;1.40;1.02;;;;;;;15.82;47.66;100165.09;5021479;28;20058;-54
2022/09/05 11:06:24;;;;;;;4.10;1.10;;;;;;;15.81;48.52;100160.69;5022234;28;20044;-55
2022/09/05 11:09:12;;;;;;;2.05;1.10;;;;;;;16.05;48.47;100162.03;5023166;28;20044;-56
2022/09/05 11:11:45;;;;;;;2.25;1.00;;;;;;;16.09;49.18;100162.56;5031896;28;20040;-54
2022/09/05 11:14:29;;;;;;;4.10;1.15;;;;;;;16.28;48.14;100156.19;5012614;28;20363;-54
2022/09/05 11:17:11;;;;;;;3.30;1.35;;;;;;;16.27;49.00;100160.72;5028627;28;20029;-52
2022/09/05 11:19:52;;;;;;;7.15;1.45;;;;;;;16.36;48.35;100154.44;5031135;28;20095;-53
2022/09/05 11:22:20;;;;;;;2.70;1.27;;;;;;;16.18;48.53;100140.91;5023721;28;20040;-52
2022/09/05 11:24:54;;;;;;;3.15;1.20;;;;;;;16.16;47.36;100145.63;5023360;28;20061;-55
2022/09/05 11:27:32;;;;;;;4.90;1.77;;;;;;;16.18;47.60;100145.44;5025980;28;20033;-52
2022/09/05 11:30:04;;;;;;;7.28;1.85;;;;;;;16.34;48.51;100142.91;5014798;28;20114;-55
2022/09/05 11:32:57;;;;;;;1.77;1.20;;;;;;;16.72;47.78;100137.34;5017313;28;20116;-51
2022/09/05 11:35:34;;;;;;;2.15;1.02;;;;;;;16.85;46.46;100141.47;5029997;28;20121;-55
2022/09/05 11:38:09;;;;;;;3.17;1.08;;;;;;;16.81;46.85;100135.56;5029472;28;20059;-56
2022/09/05 11:40:55;;;;;;;2.90;1.05;;;;;;;16.87;46.10;100136.75;5021949;28;20199;-59
2022/09/05 11:43:55;;;;;;;1.65;1.00;;;;;;;17.17;46.02;100134.66;5014826;28;20117;-54
2022/09/05 11:46:35;;;;;;;3.50;0.80;;;;;;;17.34;45.34;100131.00;5018355;28;20398;-55
2022/09/05 11:49:04;;;;;;;1.40;1.00;;;;;;;17.32;45.47;100135.75;5030878;28;20037;-55
2022/09/05 11:52:03;;;;;;;1.33;0.80;;;;;;;17.40;45.25;100126.00;5021459;28;20034;-55
2022/09/05 11:55:03;;;;;;;3.70;1.10;;;;;;;17.18;45.42;100133.66;5019888;28;20030;-59
2022/09/05 11:57:50;;;;;;;1.67;0.90;;;;;;;17.09;45.44;100124.63;5016241;28;20041;-57
2022/09/05 12:00:33;;;;;;;3.03;1.00;;;;;;;16.77;45.68;100118.78;5025923;28;20561;-53
2022/09/05 12:03:35;;;;;;;1.75;1.25;;;;;;;16.89;46.59;100115.84;5014435;28;20062;-54
2022/09/05 12:06:20;;;;;;;3.75;1.60;;;;;;;17.03;46.87;100119.88;5019616;28;20056;-54
2022/09/05 12:08:58;;;;;;;3.78;1.35;;;;;;;17.35;46.56;100111.06;5019859;28;20045;-51
2022/09/05 12:12:08;;;;;;;2.55;1.25;;;;;;;17.68;45.21;100107.66;5026767;28;20030;-52
2022/09/05 12:15:10;;;;;;;1.35;1.10;;;;;;;18.09;43.48;100106.97;5010840;28;20029;-58
2022/09/05 12:17:45;;;;;;;2.00;1.02;;;;;;;17.94;43.40;100107.59;5016982;28;20382;-54
2022/09/05 12:20:17;;;;;;;3.75;1.40;;;;;;;17.79;43.28;100101.09;5027741;28;20496;-53
2022/09/05 12:23:12;;;;;;;5.55;1.00;;;;;;;17.55;43.94;100093.75;5029838;28;20033;-52
2022/09/05 12:26:08;;;;;;;1.60;1.05;;;;;;;17.45;44.08;100110.13;5028616;28;20048;-52
2022/09/05 12:28:43;;;;;;;2.70;1.10;;;;;;;17.10;45.19;100096.56;5027106;28;20492;-50
2022/09/05 12:31:18;;;;;;;2.13;1.10;;;;;;;17.12;44.88;100093.69;5014431;28;20030;-53
2022/09/05 12:33:50;;;;;;;2.28;1.40;;;;;;;16.98;45.59;100090.56;5011816;28;20025;-51
2022/09/05 12:36:35;;;;;;;1.70;1.30;;;;;;;17.05;45.28;100083.50;5012148;28;20044;-58
2022/09/05 12:39:09;;;;;;;2.50;1.40;;;;;;;17.20;44.83;100081.06;5010799;28;20022;-57
2022/09/05 12:41:41;;;;;;;2.90;1.40;;;;;;;17.39;43.77;100079.13;5014632;28;20178;-56
2022/09/05 12:44:12;;;;;;;3.67;1.50;;;;;;;17.44;44.07;100078.66;5010940;28;20467;-54